Terminal Aerodrome Forecast
Issued by NWS

Current Version | Previous Version | Text Only | Print | Product List | Glossary On
Versions: 1 2 3 4 5 6 7 8 9 10 11 12 13 14 15 16 17 18 19 20 21 22
000
FTUS45 KABQ 311100 RRA
TAFROW
TAF
KROW 311151Z 3112/0112 06007KT P6SM BKN024 OVC040
      TEMPO 3114/3115 SCT015 BKN040
     FM311500 07008KT P6SM FEW040 BKN100
     FM312200 09010KT P6SM BKN100
     FM010400 15010KT P6SM VCSH SCT050 OVC100=

USA.gov is the U.S. government's official web portal to all federal, state and local government web resources and services.